Terminal Aerodrome Forecast
Issued by NWS

Home | Current Version | Previous Version | Text Only | Print | Product List | Glossary On
Versions: 1 2 3 4 5 6 7 8 9 10 11 12 13 14 15 16 17 18 19 20 21 22 23 24 25 26 27 28 29 30 31 32 33 34
000
FTUS43 KDMX 241127
TAFMCW
TAF
KMCW 241127Z 2412/2512 05008KT P6SM VCSH OVC060
     FM241400 03009KT P6SM VCSH SCT007 OVC022
     FM241600 02013G19KT P6SM VCSH OVC007
     FM242000 03013G21KT 4SM -SHRA OVC007
     FM250600 05014G21KT 3SM -SHRA OVC003=

USA.gov is the U.S. government's official web portal to all federal, state and local government web resources and services.